sensor_id;sensor_type;location;lat;lon;timestamp;pressure;altitude;pressure_sealevel;temperature;humidity
17254;BME280;32542;52.832;13.816;2023-04-10T00:00:54;102585.03;;;20.72;47.53
17254;BME280;32542;52.832;13.816;2023-04-10T00:04:00;102575.22;;;20.72;47.38
17254;BME280;32542;52.832;13.816;2023-04-10T00:07:03;102568.16;;;20.70;47.56
17254;BME280;32542;52.832;13.816;2023-04-10T00:10:06;102569.06;;;20.70;47.51
17254;BME280;32542;52.832;13.816;2023-04-10T00:13:09;102571.69;;;20.73;47.45
17254;BME280;32542;52.832;13.816;2023-04-10T00:16:12;102574.34;;;20.73;47.40
17254;BME280;32542;52.832;13.816;2023-04-10T00:19:16;102578.75;;;20.74;47.32
17254;BME280;32542;52.832;13.816;2023-04-10T00:22:19;102578.75;;;20.74;47.49
17254;BME280;32542;52.832;13.816;2023-04-10T00:25:22;102569.00;;;20.73;47.24
17254;BME280;32542;52.832;13.816;2023-04-10T00:28:25;102570.78;;;20.73;47.32
17254;BME280;32542;52.832;13.816;2023-04-10T00:31:28;102569.91;;;20.72;47.38
17254;BME280;32542;52.832;13.816;2023-04-10T00:34:33;102561.06;;;20.70;47.31
17254;BME280;32542;52.832;13.816;2023-04-10T00:37:36;102570.84;;;20.70;47.37
17254;BME280;32542;52.832;13.816;2023-04-10T00:40:39;102560.19;;;20.70;47.41
17254;BME280;32542;52.832;13.816;2023-04-10T00:43:42;102555.81;;;20.67;47.41
17254;BME280;32542;52.832;13.816;2023-04-10T00:46:45;102557.56;;;20.68;47.39
17254;BME280;32542;52.832;13.816;2023-04-10T00:49:50;102555.75;;;20.70;47.34
17254;BME280;32542;52.832;13.816;2023-04-10T00:52:53;102542.44;;;20.72;47.33
17254;BME280;32542;52.832;13.816;2023-04-10T00:55:56;102541.53;;;20.71;47.36
17254;BME280;32542;52.832;13.816;2023-04-10T00:59:00;102538.03;;;20.69;47.29
17254;BME280;32542;52.832;13.816;2023-04-10T01:02:07;102541.59;;;20.68;47.40
17254;BME280;32542;52.832;13.816;2023-04-10T01:05:13;102546.94;;;20.67;47.35
17254;BME280;32542;52.832;13.816;2023-04-10T01:08:22;102548.81;;;20.62;47.47
17254;BME280;32542;52.832;13.816;2023-04-10T01:11:33;102541.75;;;20.61;47.51
17254;BME280;32542;52.832;13.816;2023-04-10T01:14:47;102543.47;;;20.62;47.47
17254;BME280;32542;52.832;13.816;2023-04-10T01:17:57;102543.47;;;20.63;47.35
17254;BME280;32542;52.832;13.816;2023-04-10T01:21:05;102543.47;;;20.63;47.56
17254;BME280;32542;52.832;13.816;2023-04-10T01:24:26;102536.38;;;20.62;47.59
17254;BME280;32542;52.832;13.816;2023-04-10T01:27:43;102531.06;;;20.62;47.47
17254;BME280;32542;52.832;13.816;2023-04-10T01:30:51;102529.25;;;20.64;47.45
17254;BME280;32542;52.832;13.816;2023-04-10T01:33:59;102534.56;;;20.64;47.40
17254;BME280;32542;52.832;13.816;2023-04-10T01:37:07;102535.50;;;20.63;47.42
17254;BME280;32542;52.832;13.816;2023-04-10T01:40:14;102529.28;;;20.63;47.47
17254;BME280;32542;52.832;13.816;2023-04-10T01:43:19;102524.00;;;20.60;47.49
17254;BME280;32542;52.832;13.816;2023-04-10T01:46:27;102524.94;;;20.57;47.54
17254;BME280;32542;52.832;13.816;2023-04-10T01:49:32;102535.56;;;20.59;47.56
17254;BME280;32542;52.832;13.816;2023-04-10T01:52:37;102536.44;;;20.59;47.56
17254;BME280;32542;52.832;13.816;2023-04-10T01:56:01;102535.56;;;20.57;47.48
17254;BME280;32542;52.832;13.816;2023-04-10T01:59:12;102527.59;;;20.59;47.39
17254;BME280;32542;52.832;13.816;2023-04-10T02:02:16;102525.72;;;20.62;47.48
17254;BME280;32542;52.832;13.816;2023-04-10T02:05:19;102528.44;;;20.61;47.47
17254;BME280;32542;52.832;13.816;2023-04-10T02:08:29;102528.34;;;20.64;47.39
17254;BME280;32542;52.832;13.816;2023-04-10T02:11:39;102534.56;;;20.64;47.38
17254;BME280;32542;52.832;13.816;2023-04-10T02:14:45;102539.94;;;20.63;47.40
17254;BME280;32542;52.832;13.816;2023-04-10T02:17:51;102534.66;;;20.61;47.39
17254;BME280;32542;52.832;13.816;2023-04-10T02:20:54;102531.06;;;20.62;47.28
17254;BME280;32542;52.832;13.816;2023-04-10T02:23:57;102524.00;;;20.60;47.39
17254;BME280;32542;52.832;13.816;2023-04-10T02:27:00;102528.44;;;20.59;47.38
17254;BME280;32542;52.832;13.816;2023-04-10T02:30:04;102538.19;;;20.60;47.46
17254;BME280;32542;52.832;13.816;2023-04-10T02:33:10;102526.72;;;20.58;47.35
17254;BME280;32542;52.832;13.816;2023-04-10T02:36:13;102528.47;;;20.58;47.48
17254;BME280;32542;52.832;13.816;2023-04-10T02:39:16;102524.03;;;20.58;47.47
17254;BME280;32542;52.832;13.816;2023-04-10T02:42:22;102528.41;;;20.62;47.35
17254;BME280;32542;52.832;13.816;2023-04-10T02:45:26;102530.16;;;20.63;47.27
17254;BME280;32542;52.832;13.816;2023-04-10T02:48:31;102526.63;;;20.63;47.40
17254;BME280;32542;52.832;13.816;2023-04-10T02:51:36;102535.53;;;20.60;47.35
17254;BME280;32542;52.832;13.816;2023-04-10T02:54:39;102525.78;;;20.59;47.37
17254;BME280;32542;52.832;13.816;2023-04-10T02:57:42;102533.84;;;20.56;47.35
17254;BME280;32542;52.832;13.816;2023-04-10T03:00:47;102540.91;;;20.57;47.35
17254;BME280;32542;52.832;13.816;2023-04-10T03:04:02;102536.50;;;20.56;47.47
17254;BME280;32542;52.832;13.816;2023-04-10T03:07:10;102531.22;;;20.55;47.44
17254;BME280;32542;52.832;13.816;2023-04-10T03:10:13;102530.34;;;20.54;47.47
17254;BME280;32542;52.832;13.816;2023-04-10T03:13:16;102531.22;;;20.53;47.58
17254;BME280;32542;52.832;13.816;2023-04-10T03:16:19;102536.53;;;20.55;47.42
17254;BME280;32542;52.832;13.816;2023-04-10T03:19:23;102535.56;;;20.57;47.41
17254;BME280;32542;52.832;13.816;2023-04-10T03:22:27;102535.56;;;20.59;47.29
17254;BME280;32542;52.832;13.816;2023-04-10T03:25:33;102536.44;;;20.59;47.25
17254;BME280;32542;52.832;13.816;2023-04-10T03:28:38;102536.44;;;20.59;47.38
17254;BME280;32542;52.832;13.816;2023-04-10T03:31:43;102536.44;;;20.59;47.37
17254;BME280;32542;52.832;13.816;2023-04-10T03:34:48;102531.13;;;20.58;47.40
17254;BME280;32542;52.832;13.816;2023-04-10T03:37:50;102535.63;;;20.56;47.38
17254;BME280;32542;52.832;13.816;2023-04-10T03:40:54;102538.28;;;20.56;47.37
17254;BME280;32542;52.832;13.816;2023-04-10T03:43:58;102544.53;;;20.55;47.40
17254;BME280;32542;52.832;13.816;2023-04-10T03:47:03;102542.72;;;20.55;47.25
17254;BME280;32542;52.832;13.816;2023-04-10T03:50:09;102540.97;;;20.54;47.25
17254;BME280;32542;52.832;13.816;2023-04-10T03:53:19;102536.53;;;20.53;47.44
17254;BME280;32542;52.832;13.816;2023-04-10T03:56:23;102538.31;;;20.54;47.34
17254;BME280;32542;52.832;13.816;2023-04-10T03:59:26;102548.03;;;20.55;47.42
17254;BME280;32542;52.832;13.816;2023-04-10T04:02:41;102548.03;;;20.55;47.37
17254;BME280;32542;52.832;13.816;2023-04-10T04:05:46;102542.75;;;20.54;47.35
17254;BME280;32542;52.832;13.816;2023-04-10T04:08:57;102545.44;;;20.52;47.39
17254;BME280;32542;52.832;13.816;2023-04-10T04:12:36;102545.44;;;20.52;47.40
17254;BME280;32542;52.832;13.816;2023-04-10T04:15:58;102549.91;;;20.52;47.30
17254;BME280;32542;52.832;13.816;2023-04-10T04:19:30;102554.41;;;20.48;47.32
17254;BME280;32542;52.832;13.816;2023-04-10T04:23:03;102550.84;;;20.48;47.43
17254;BME280;32542;52.832;13.816;2023-04-10T04:26:09;102545.50;;;20.49;47.40
17254;BME280;32542;52.832;13.816;2023-04-10T04:29:21;102544.69;;;20.46;47.35
17254;BME280;32542;52.832;13.816;2023-04-10T04:32:39;102541.09;;;20.47;47.49
17254;BME280;32542;52.832;13.816;2023-04-10T04:35:50;102539.31;;;20.47;47.47
17254;BME280;32542;52.832;13.816;2023-04-10T04:39:13;102546.38;;;20.50;47.28
17254;BME280;32542;52.832;13.816;2023-04-10T04:42:22;102538.34;;;20.51;47.28
17254;BME280;32542;52.832;13.816;2023-04-10T04:45:47;102537.47;;;20.51;47.18
17254;BME280;32542;52.832;13.816;2023-04-10T04:49:09;102542.78;;;20.51;47.15
17254;BME280;32542;52.832;13.816;2023-04-10T04:52:35;102545.50;;;20.49;47.15
17254;BME280;32542;52.832;13.816;2023-04-10T04:55:59;102547.28;;;20.50;47.15
17254;BME280;32542;52.832;13.816;2023-04-10T04:59:11;102553.44;;;20.51;47.25
17254;BME280;32542;52.832;13.816;2023-04-10T05:02:28;102545.50;;;20.49;47.26
17254;BME280;32542;52.832;13.816;2023-04-10T05:06:05;102553.44;;;20.51;47.26
17254;BME280;32542;52.832;13.816;2023-04-10T05:09:32;102550.78;;;20.52;47.14
17254;BME280;32542;52.832;13.816;2023-04-10T05:12:51;102545.44;;;20.52;47.06
17254;BME280;32542;52.832;13.816;2023-04-10T05:16:03;102542.75;;;20.54;47.20
17254;BME280;32542;52.832;13.816;2023-04-10T05:19:06;102554.28;;;20.54;47.05
17254;BME280;32542;52.832;13.816;2023-04-10T05:22:27;102548.06;;;20.54;47.07
17254;BME280;32542;52.832;13.816;2023-04-10T05:25:57;102550.78;;;20.52;47.14
17254;BME280;32542;52.832;13.816;2023-04-10T05:29:20;102556.09;;;20.52;47.05
17254;BME280;32542;52.832;13.816;2023-04-10T05:32:42;102561.41;;;20.52;47.11
17254;BME280;32542;52.832;13.816;2023-04-10T05:36:25;102563.25;;;20.50;47.20
17254;BME280;32542;52.832;13.816;2023-04-10T05:39:41;102557.06;;;20.48;47.26
17254;BME280;32542;52.832;13.816;2023-04-10T05:43:04;102555.25;;;20.49;47.19
17254;BME280;32542;52.832;13.816;2023-04-10T05:46:27;102556.13;;;20.49;47.15
17254;BME280;32542;52.832;13.816;2023-04-10T05:49:47;102557.03;;;20.50;47.20
17254;BME280;32542;52.832;13.816;2023-04-10T05:52:55;102552.59;;;20.50;47.02
17254;BME280;32542;52.832;13.816;2023-04-10T05:56:16;102556.09;;;20.51;47.14
17254;BME280;32542;52.832;13.816;2023-04-10T05:59:32;102557.00;;;20.51;47.14
17254;BME280;32542;52.832;13.816;2023-04-10T06:02:55;102554.31;;;20.53;47.11
17254;BME280;32542;52.832;13.816;2023-04-10T06:06:01;102553.41;;;20.54;47.06
17254;BME280;32542;52.832;13.816;2023-04-10T06:09:05;102548.97;;;20.54;47.04
17254;BME280;32542;52.832;13.816;2023-04-10T06:12:08;102543.63;;;20.54;46.98
17254;BME280;32542;52.832;13.816;2023-04-10T06:15:13;102552.50;;;20.55;46.97
17254;BME280;32542;52.832;13.816;2023-04-10T06:18:18;102554.28;;;20.54;47.04
17254;BME280;32542;52.832;13.816;2023-04-10T06:21:22;102547.19;;;20.53;47.07
17254;BME280;32542;52.832;13.816;2023-04-10T06:24:24;102541.00;;;20.53;47.05
17254;BME280;32542;52.832;13.816;2023-04-10T06:27:28;102545.44;;;20.52;47.09
17254;BME280;32542;52.832;13.816;2023-04-10T06:30:31;102541.88;;;20.53;47.02
17254;BME280;32542;52.832;13.816;2023-04-10T06:33:41;102538.31;;;20.54;47.11
17254;BME280;32542;52.832;13.816;2023-04-10T06:36:44;102528.56;;;20.55;47.08
17254;BME280;32542;52.832;13.816;2023-04-10T06:39:47;102528.56;;;20.55;47.09
17254;BME280;32542;52.832;13.816;2023-04-10T06:42:50;102531.19;;;20.56;47.08
17254;BME280;32542;52.832;13.816;2023-04-10T06:46:02;102540.91;;;20.57;47.11
17254;BME280;32542;52.832;13.816;2023-04-10T06:49:07;102539.13;;;20.58;47.01
17254;BME280;32542;52.832;13.816;2023-04-10T06:52:09;102533.81;;;20.58;46.98
17254;BME280;32542;52.832;13.816;2023-04-10T06:55:12;102526.72;;;20.58;46.99
17254;BME280;32542;52.832;13.816;2023-04-10T06:58:15;102536.44;;;20.59;47.08
17254;BME280;32542;52.832;13.816;2023-04-10T07:01:19;102520.47;;;20.59;46.94
17254;BME280;32542;52.832;13.816;2023-04-10T07:04:23;102512.47;;;20.59;46.97
17254;BME280;32542;52.832;13.816;2023-04-10T07:07:26;102515.13;;;20.59;46.96
17254;BME280;32542;52.832;13.816;2023-04-10T07:10:29;102511.56;;;20.60;47.04
17254;BME280;32542;52.832;13.816;2023-04-10T07:13:32;102511.56;;;20.60;46.99
17254;BME280;32542;52.832;13.816;2023-04-10T07:16:36;102507.13;;;20.61;47.11
17254;BME280;32542;52.832;13.816;2023-04-10T07:19:40;102504.47;;;20.59;47.06
17254;BME280;32542;52.832;13.816;2023-04-10T07:22:43;102506.25;;;20.60;47.12
17254;BME280;32542;52.832;13.816;2023-04-10T07:25:45;102515.13;;;20.61;46.97
17254;BME280;32542;52.832;13.816;2023-04-10T07:28:48;102512.47;;;20.61;47.14
17254;BME280;32542;52.832;13.816;2023-04-10T07:31:51;102506.25;;;20.60;47.08
17254;BME280;32542;52.832;13.816;2023-04-10T07:34:55;102506.25;;;20.60;47.05
17254;BME280;32542;52.832;13.816;2023-04-10T07:37:58;102506.25;;;20.60;47.05
17254;BME280;32542;52.832;13.816;2023-04-10T07:41:01;102506.25;;;20.60;47.14
17254;BME280;32542;52.832;13.816;2023-04-10T07:44:04;102499.16;;;20.61;47.24
17254;BME280;32542;52.832;13.816;2023-04-10T07:47:06;102500.88;;;20.63;47.18
17254;BME280;32542;52.832;13.816;2023-04-10T07:50:11;102492.91;;;20.63;47.20
17254;BME280;32542;52.832;13.816;2023-04-10T07:53:13;102488.47;;;20.62;47.13
17254;BME280;32542;52.832;13.816;2023-04-10T07:56:17;102496.44;;;20.62;47.23
17254;BME280;32542;52.832;13.816;2023-04-10T07:59:20;102494.69;;;20.63;47.02
17254;BME280;32542;52.832;13.816;2023-04-10T08:02:23;102484.03;;;20.63;47.13
17254;BME280;32542;52.832;13.816;2023-04-10T08:05:28;102481.41;;;20.61;47.22
17254;BME280;32542;52.832;13.816;2023-04-10T08:08:31;102475.19;;;20.61;47.27
17254;BME280;32542;52.832;13.816;2023-04-10T08:11:35;102475.16;;;20.62;47.18
17254;BME280;32542;52.832;13.816;2023-04-10T08:14:39;102469.88;;;20.61;47.16
17254;BME280;32542;52.832;13.816;2023-04-10T08:17:42;102475.16;;;20.62;47.22
17254;BME280;32542;52.832;13.816;2023-04-10T08:20:46;102473.38;;;20.63;47.20
17254;BME280;32542;52.832;13.816;2023-04-10T08:23:49;102466.28;;;20.63;47.15
17254;BME280;32542;52.832;13.816;2023-04-10T08:26:52;102458.28;;;20.63;47.23
17254;BME280;32542;52.832;13.816;2023-04-10T08:29:55;102463.63;;;20.63;47.34
17254;BME280;32542;52.832;13.816;2023-04-10T08:32:58;102461.81;;;20.64;47.24
17254;BME280;32542;52.832;13.816;2023-04-10T08:36:02;102461.81;;;20.64;47.38
17254;BME280;32542;52.832;13.816;2023-04-10T08:39:06;102465.34;;;20.64;47.40
17254;BME280;32542;52.832;13.816;2023-04-10T08:42:09;102465.34;;;20.64;47.39
17254;BME280;32542;52.832;13.816;2023-04-10T08:45:12;102462.69;;;20.64;47.33
17254;BME280;32542;52.832;13.816;2023-04-10T08:48:15;102460.03;;;20.64;47.38
17254;BME280;32542;52.832;13.816;2023-04-10T08:51:25;102455.59;;;20.65;47.28
17254;BME280;32542;52.832;13.816;2023-04-10T08:54:32;102460.03;;;20.64;47.29
17254;BME280;32542;52.832;13.816;2023-04-10T08:57:36;102460.03;;;20.64;47.29
17254;BME280;32542;52.832;13.816;2023-04-10T09:00:43;102446.69;;;20.66;47.48
17254;BME280;32542;52.832;13.816;2023-04-10T09:03:46;102451.13;;;20.67;47.28
17254;BME280;32542;52.832;13.816;2023-04-10T09:06:52;102450.22;;;20.66;47.32
17254;BME280;32542;52.832;13.816;2023-04-10T09:09:55;102446.69;;;20.67;47.28
17254;BME280;32542;52.832;13.816;2023-04-10T09:12:58;102441.34;;;20.66;47.47
17254;BME280;32542;52.832;13.816;2023-04-10T09:16:01;102435.19;;;20.65;47.38
17254;BME280;32542;52.832;13.816;2023-04-10T09:19:05;102435.19;;;20.65;47.40
17254;BME280;32542;52.832;13.816;2023-04-10T09:22:09;102425.38;;;20.66;47.42
17254;BME280;32542;52.832;13.816;2023-04-10T09:25:28;102421.88;;;20.65;47.40
17254;BME280;32542;52.832;13.816;2023-04-10T09:28:31;102413.00;;;20.65;47.30
17254;BME280;32542;52.832;13.816;2023-04-10T09:31:36;102411.22;;;20.65;47.35
17254;BME280;32542;52.832;13.816;2023-04-10T09:34:52;102408.56;;;20.65;47.42
17254;BME280;32542;52.832;13.816;2023-04-10T09:37:58;102400.56;;;20.65;47.27
17254;BME280;32542;52.832;13.816;2023-04-10T09:41:05;102397.91;;;20.65;47.34
17254;BME280;32542;52.832;13.816;2023-04-10T09:44:10;102394.31;;;20.66;47.27
17254;BME280;32542;52.832;13.816;2023-04-10T09:47:17;102390.78;;;20.67;47.30
17254;BME280;32542;52.832;13.816;2023-04-10T09:50:33;102385.44;;;20.67;47.26
17254;BME280;32542;52.832;13.816;2023-04-10T09:53:48;102372.13;;;20.67;47.27
17254;BME280;32542;52.832;13.816;2023-04-10T09:56:52;102378.31;;;20.68;47.26
17254;BME280;32542;52.832;13.816;2023-04-10T09:59:56;102371.22;;;20.68;47.27
17254;BME280;32542;52.832;13.816;2023-04-10T10:03:00;102372.09;;;20.69;47.29
17254;BME280;32542;52.832;13.816;2023-04-10T10:06:05;102356.13;;;20.69;47.26
17254;BME280;32542;52.832;13.816;2023-04-10T10:09:09;102360.56;;;20.68;47.15
17254;BME280;32542;52.832;13.816;2023-04-10T10:12:15;102359.66;;;20.69;47.17
17254;BME280;32542;52.832;13.816;2023-04-10T10:15:24;102357.00;;;20.69;47.07
17254;BME280;32542;52.832;13.816;2023-04-10T10:18:36;102353.41;;;20.70;47.03
17254;BME280;32542;52.832;13.816;2023-04-10T10:21:43;102348.09;;;20.70;46.99
17254;BME280;32542;52.832;13.816;2023-04-10T10:24:47;102348.09;;;20.70;47.12
17254;BME280;32542;52.832;13.816;2023-04-10T10:27:52;102326.78;;;20.70;47.26
17254;BME280;32542;52.832;13.816;2023-04-10T10:30:56;102328.56;;;20.70;47.00
17254;BME280;32542;52.832;13.816;2023-04-10T10:33:59;102335.72;;;20.69;47.08
17254;BME280;32542;52.832;13.816;2023-04-10T10:37:05;102326.78;;;20.70;46.92
17254;BME280;32542;52.832;13.816;2023-04-10T10:40:13;102314.41;;;20.69;46.87
17254;BME280;32542;52.832;13.816;2023-04-10T10:43:23;102315.25;;;20.70;46.98
17254;BME280;32542;52.832;13.816;2023-04-10T10:46:33;102308.16;;;20.70;46.93
17254;BME280;32542;52.832;13.816;2023-04-10T10:49:54;102307.28;;;20.70;46.95
17254;BME280;32542;52.832;13.816;2023-04-10T10:52:57;102300.16;;;20.70;47.00
17254;BME280;32542;52.832;13.816;2023-04-10T10:56:36;102294.84;;;20.70;47.00
17254;BME280;32542;52.832;13.816;2023-04-10T10:59:54;102291.34;;;20.68;46.92
17254;BME280;32542;52.832;13.816;2023-04-10T11:03:27;102288.69;;;20.68;46.92
17254;BME280;32542;52.832;13.816;2023-04-10T11:06:48;102281.59;;;20.69;46.99
17254;BME280;32542;52.832;13.816;2023-04-10T11:09:53;102285.13;;;20.68;46.79
17254;BME280;32542;52.832;13.816;2023-04-10T11:13:17;102286.03;;;20.68;46.82
17254;BME280;32542;52.832;13.816;2023-04-10T11:16:21;102272.66;;;20.70;46.68
17254;BME280;32542;52.832;13.816;2023-04-10T11:19:25;102277.94;;;20.73;47.60
17254;BME280;32542;52.832;13.816;2023-04-10T11:22:28;102266.34;;;20.75;49.14
17254;BME280;32542;52.832;13.816;2023-04-10T11:25:45;102277.78;;;20.79;49.47
17254;BME280;32542;52.832;13.816;2023-04-10T11:28:51;102269.75;;;20.80;50.41
17254;BME280;32542;52.832;13.816;2023-04-10T11:31:55;102271.47;;;20.84;52.01
17254;BME280;32542;52.832;13.816;2023-04-10T11:34:58;102260.75;;;20.86;52.46
17254;BME280;32542;52.832;13.816;2023-04-10T11:38:15;102258.06;;;20.87;52.96
17254;BME280;32542;52.832;13.816;2023-04-10T11:41:18;102251.81;;;20.88;53.34
17254;BME280;32542;52.832;13.816;2023-04-10T11:44:28;102237.59;;;20.89;52.86
17254;BME280;32542;52.832;13.816;2023-04-10T11:47:32;102232.25;;;20.89;52.54
17254;BME280;32542;52.832;13.816;2023-04-10T11:50:36;102230.47;;;20.90;52.29
17254;BME280;32542;52.832;13.816;2023-04-10T11:53:40;102222.50;;;20.90;52.56
17254;BME280;32542;52.832;13.816;2023-04-10T11:56:55;102225.19;;;20.88;52.53
17254;BME280;32542;52.832;13.816;2023-04-10T12:00:00;102217.22;;;20.87;52.22
17254;BME280;32542;52.832;13.816;2023-04-10T12:03:06;102224.38;;;20.86;51.85
17254;BME280;32542;52.832;13.816;2023-04-10T12:06:11;102204.84;;;20.86;51.33
17254;BME280;32542;52.832;13.816;2023-04-10T12:09:14;102208.41;;;20.85;51.00
17254;BME280;32542;52.832;13.816;2023-04-10T12:12:17;102194.25;;;20.83;50.71
17254;BME280;32542;52.832;13.816;2023-04-10T12:15:26;102196.06;;;20.82;50.30
17254;BME280;32542;52.832;13.816;2023-04-10T12:18:30;102190.75;;;20.82;50.24
17254;BME280;32542;52.832;13.816;2023-04-10T12:21:34;102186.31;;;20.81;50.11
17254;BME280;32542;52.832;13.816;2023-04-10T12:24:42;102176.56;;;20.80;49.82
17254;BME280;32542;52.832;13.816;2023-04-10T12:27:47;102172.16;;;20.79;49.60
17254;BME280;32542;52.832;13.816;2023-04-10T12:30:52;102178.38;;;20.80;49.51
17254;BME280;32542;52.832;13.816;2023-04-10T12:33:55;102179.22;;;20.80;49.36
17254;BME280;32542;52.832;13.816;2023-04-10T12:36:59;102168.63;;;20.79;49.31
17254;BME280;32542;52.832;13.816;2023-04-10T12:40:05;102157.97;;;20.79;49.17
17254;BME280;32542;52.832;13.816;2023-04-10T12:43:08;102153.53;;;20.79;49.59
17254;BME280;32542;52.832;13.816;2023-04-10T12:46:24;102152.53;;;20.83;50.07
17254;BME280;32542;52.832;13.816;2023-04-10T12:49:27;102149.81;;;20.85;50.61
17254;BME280;32542;52.832;13.816;2023-04-10T12:52:29;102148.97;;;20.84;50.29
17254;BME280;32542;52.832;13.816;2023-04-10T12:55:34;102135.59;;;20.86;50.03
17254;BME280;32542;52.832;13.816;2023-04-10T12:58:37;102126.75;;;20.85;50.37
17254;BME280;32542;52.832;13.816;2023-04-10T13:01:42;102116.94;;;20.87;50.34
17254;BME280;32542;52.832;13.816;2023-04-10T13:04:46;102103.59;;;20.87;50.33
17254;BME280;32542;52.832;13.816;2023-04-10T13:07:48;102105.38;;;20.87;50.16
17254;BME280;32542;52.832;13.816;2023-04-10T13:10:53;102100.91;;;20.89;50.09
17254;BME280;32542;52.832;13.816;2023-04-10T13:13:58;102097.28;;;20.91;50.08
17254;BME280;32542;52.832;13.816;2023-04-10T13:17:02;102089.28;;;20.93;51.13
17254;BME280;32542;52.832;13.816;2023-04-10T13:20:07;102082.13;;;20.93;51.05
17254;BME280;32542;52.832;13.816;2023-04-10T13:23:10;102079.44;;;20.95;50.70
17254;BME280;32542;52.832;13.816;2023-04-10T13:26:13;102073.25;;;20.94;50.76
17254;BME280;32542;52.832;13.816;2023-04-10T13:29:16;102070.59;;;20.94;50.65
17254;BME280;32542;52.832;13.816;2023-04-10T13:32:20;102060.81;;;20.95;51.23
17254;BME280;32542;52.832;13.816;2023-04-10T13:35:23;102048.34;;;20.95;51.25
17254;BME280;32542;52.832;13.816;2023-04-10T13:38:26;102051.00;;;20.95;51.19
17254;BME280;32542;52.832;13.816;2023-04-10T13:41:29;102055.50;;;20.95;50.94
17254;BME280;32542;52.832;13.816;2023-04-10T13:44:31;102044.84;;;20.95;50.74
17254;BME280;32542;52.832;13.816;2023-04-10T13:47:36;102032.41;;;20.94;50.57
17254;BME280;32542;52.832;13.816;2023-04-10T13:50:38;102027.56;;;20.77;46.02
17254;BME280;32542;52.832;13.816;2023-04-10T13:53:41;102020.91;;;20.29;41.21
17254;BME280;32542;52.832;13.816;2023-04-10T13:56:44;102015.63;;;19.91;42.66
17254;BME280;32542;52.832;13.816;2023-04-10T13:59:47;102011.78;;;20.04;43.93
17254;BME280;32542;52.832;13.816;2023-04-10T14:02:51;102009.81;;;20.10;43.64
17254;BME280;32542;52.832;13.816;2023-04-10T14:05:54;101994.56;;;20.17;44.01
17254;BME280;32542;52.832;13.816;2023-04-10T14:08:57;101992.75;;;20.19;43.58
17254;BME280;32542;52.832;13.816;2023-04-10T14:12:00;101993.66;;;20.18;43.03
17254;BME280;32542;52.832;13.816;2023-04-10T14:15:04;101990.09;;;20.19;42.83
17254;BME280;32542;52.832;13.816;2023-04-10T14:18:08;101975.06;;;20.18;42.78
17254;BME280;32542;52.832;13.816;2023-04-10T14:21:11;101977.78;;;20.15;42.61
17254;BME280;32542;52.832;13.816;2023-04-10T14:24:14;101974.13;;;20.19;42.91
17254;BME280;32542;52.832;13.816;2023-04-10T14:27:17;101968.72;;;20.23;42.88
17254;BME280;32542;52.832;13.816;2023-04-10T14:30:20;101964.28;;;20.24;42.73
17254;BME280;32542;52.832;13.816;2023-04-10T14:33:24;101993.47;;;20.27;43.29
17254;BME280;32542;52.832;13.816;2023-04-10T14:36:27;101970.38;;;20.29;43.71
17254;BME280;32542;52.832;13.816;2023-04-10T14:39:30;101967.59;;;20.32;44.02
17254;BME280;32542;52.832;13.816;2023-04-10T14:42:34;101963.94;;;20.38;44.09
17254;BME280;32542;52.832;13.816;2023-04-10T14:45:37;101959.44;;;20.40;44.00
17254;BME280;32542;52.832;13.816;2023-04-10T14:48:41;101958.47;;;20.42;44.13
17254;BME280;32542;52.832;13.816;2023-04-10T14:51:44;101954.00;;;20.44;44.10
17254;BME280;32542;52.832;13.816;2023-04-10T14:54:48;101951.34;;;20.44;44.27
17254;BME280;32542;52.832;13.816;2023-04-10T14:57:51;101933.53;;;20.46;44.32
17254;BME280;32542;52.832;13.816;2023-04-10T15:00:54;101926.38;;;20.48;44.44
17254;BME280;32542;52.832;13.816;2023-04-10T15:03:58;101923.72;;;20.48;44.55
17254;BME280;32542;52.832;13.816;2023-04-10T15:07:01;101921.06;;;20.48;44.65
17254;BME280;32542;52.832;13.816;2023-04-10T15:10:05;101924.53;;;20.50;44.58
17254;BME280;32542;52.832;13.816;2023-04-10T15:13:08;101913.03;;;20.50;44.62
17254;BME280;32542;52.832;13.816;2023-04-10T15:16:11;101902.38;;;20.50;44.85
17254;BME280;32542;52.832;13.816;2023-04-10T15:19:15;101905.91;;;20.50;44.68
17254;BME280;32542;52.832;13.816;2023-04-10T15:22:18;101891.72;;;20.50;44.88
17254;BME280;32542;52.832;13.816;2023-04-10T15:25:21;101903.25;;;20.50;44.73
17254;BME280;32542;52.832;13.816;2023-04-10T15:28:24;101895.28;;;20.50;44.94
17254;BME280;32542;52.832;13.816;2023-04-10T15:31:28;101892.63;;;20.50;44.92
17254;BME280;32542;52.832;13.816;2023-04-10T15:34:32;101888.13;;;20.51;44.96
17254;BME280;32542;52.832;13.816;2023-04-10T15:37:35;101888.13;;;20.51;44.87
17254;BME280;32542;52.832;13.816;2023-04-10T15:40:38;101875.72;;;20.51;45.04
17254;BME280;32542;52.832;13.816;2023-04-10T15:43:41;101863.25;;;20.53;44.91
17254;BME280;32542;52.832;13.816;2023-04-10T15:46:44;101865.91;;;20.53;44.99
17254;BME280;32542;52.832;13.816;2023-04-10T15:49:49;101863.22;;;20.55;45.03
17254;BME280;32542;52.832;13.816;2023-04-10T15:52:52;101851.69;;;20.54;45.05
17254;BME280;32542;52.832;13.816;2023-04-10T15:55:54;101842.78;;;20.55;45.12
17254;BME280;32542;52.832;13.816;2023-04-10T15:58:57;101840.13;;;20.55;45.07
17254;BME280;32542;52.832;13.816;2023-04-10T16:02:00;101837.50;;;20.54;45.18
17254;BME280;32542;52.832;13.816;2023-04-10T16:05:05;101830.47;;;20.53;45.01